Strona główna
METAR-TAF:

METAR-TAF

Lotnisko :

Tomaszów Mazowiecki, Polska

Szerokość geograficzna: 51-35-04N, Długość geograficzna: 020-05-52E, wysokość: 174 m

METAR: brakujący

czas: 20:32 (19:32 UTC)

Prognoza

Raport powstał 32 godziny i 32 minut temu, godzina 11:00 UTC
Prognoza ważna od 08 godzina 12 UTC do 08 godzina 21 UTC
Wiatr 12 kt od zachód
Widzialność 10 km lub więcej
Przerywane chmury na wysokości 2000 ft
Przerywane chmury na wysokości 10000 ft
Przejściowo
od 08 godzina 12 UTC do 08 godzina 15 UTC
Wiatr 15 kt od zachód w porywach dochodzący do 25 kt
Rozproszone chmury na wysokości 4000 ft

TAF: EPTM 081100Z 0812/0821 27012KT 9999 BKN020 BKN100 TEMPO 0812/0815 27015G25KT SCT040

Obserwacja i prognoza pogody dla ponad 4000 lotnisk (raport METAR i TAF).

Dostępne stacje oznaczono żółtymi i czerwonymi punktami na mapie.

Najedź kursorem aby zobaczyć nazwę stacji.

Kliknij aby zobaczyć obserwacje i prognozy pogody.

Aby zmienić mapę: kliknij na zielony przycisk z czarnym krzyżykiem, aby powiększyć; na zielony przycisk z myślnikiem, aby pomniejszyć; na zielone strzałki, aby przejść do map sąsiednich.


METAR-TAF: